createdAt,value
2022-11-09T00:00:15.112Z,99989.47
2022-11-09T00:05:17.099Z,99986.13
2022-11-09T00:10:19.024Z,99982.06
2022-11-09T00:15:20.947Z,99983.97
2022-11-09T00:20:22.764Z,99986.22
2022-11-09T00:25:24.988Z,99978.56
2022-11-09T00:30:27.982Z,99978.38
2022-11-09T00:35:29.895Z,99987.94
2022-11-09T00:40:31.722Z,99987.28
2022-11-09T00:45:33.744Z,99978.75
2022-11-09T00:50:35.645Z,99981.13
2022-11-09T00:55:38.080Z,99978.84
2022-11-09T01:00:40.104Z,99978.94
2022-11-09T01:05:42.120Z,99987.59
2022-11-09T01:10:47.093Z,99997.16
2022-11-09T01:15:52.016Z,99999.81
2022-11-09T01:20:53.939Z,100002.09
2022-11-09T01:26:00.412Z,100001.41
2022-11-09T01:31:05.085Z,100006.84
2022-11-09T01:36:13.305Z,100002.47
2022-11-09T01:41:27.670Z,100005.88
2022-11-09T01:46:38.793Z,99995.06
2022-11-09T01:51:46.078Z,99994.31
2022-11-09T01:56:53.272Z,100006.44
2022-11-09T02:01:55.803Z,100005.81
2022-11-09T02:06:59.212Z,100003.22
2022-11-09T02:12:01.332Z,99998.31
2022-11-09T02:17:03.173Z,100007.69
2022-11-09T02:22:05.120Z,100014.63
2022-11-09T02:27:07.568Z,100017.47
2022-11-09T02:32:15.024Z,100028.84
2022-11-09T02:37:40.870Z,100015.19
2022-11-09T02:42:43.092Z,100015.59
2022-11-09T02:47:44.844Z,100018.78
2022-11-09T02:52:46.709Z,100015.38
2022-11-09T02:57:48.738Z,100008.25
2022-11-09T03:02:50.845Z,100014.31
2022-11-09T03:07:52.775Z,100026.31
2022-11-09T03:12:55.316Z,100007.09
2022-11-09T03:17:57.239Z,100008.53
2022-11-09T03:23:00.403Z,100010.53
2022-11-09T03:28:04.907Z,100020.16
2022-11-09T03:33:10.644Z,100024.50
2022-11-09T03:38:12.694Z,100033.06
2022-11-09T03:43:14.694Z,100047.09
2022-11-09T03:48:16.630Z,100041.13
2022-11-09T03:53:19.071Z,100053.25
2022-11-09T03:58:21.284Z,100065.50
2022-11-09T04:03:23.338Z,100078.50
2022-11-09T04:08:25.328Z,100073.94
2022-11-09T04:13:27.384Z,100079.47
2022-11-09T04:18:29.440Z,100082.59
2022-11-09T04:23:31.362Z,100085.34
2022-11-09T04:28:33.398Z,100099.41
2022-11-09T04:33:35.565Z,100100.66
2022-11-09T04:38:37.522Z,100097.69
2022-11-09T04:43:39.520Z,100106.91
2022-11-09T04:48:41.432Z,100100.66
2022-11-09T04:53:43.298Z,100098.91
2022-11-09T04:58:45.063Z,100094.75
2022-11-09T05:03:46.945Z,100097.78
2022-11-09T05:08:49.255Z,100098.09
2022-11-09T05:13:54.242Z,100099.88
2022-11-09T05:18:56.356Z,100105.59
2022-11-09T05:24:01.299Z,100111.91
2022-11-09T05:29:07.054Z,100114.50
2022-11-09T05:34:13.038Z,100118.13
2022-11-09T05:39:14.895Z,100110.41
2022-11-09T05:44:17.371Z,100110.31
2022-11-09T05:49:19.446Z,100117.44
2022-11-09T05:54:21.496Z,100105.00
2022-11-09T05:59:23.427Z,100106.81
2022-11-09T06:04:25.190Z,100099.69
2022-11-09T06:09:27.333Z,100105.69
2022-11-09T06:14:29.505Z,100118.97
2022-11-09T06:19:31.322Z,100114.78
2022-11-09T06:24:33.328Z,100131.22
2022-11-09T06:29:35.265Z,100130.06
2022-11-09T06:34:37.333Z,100134.31
2022-11-09T06:39:39.304Z,100136.97
2022-11-09T06:44:41.180Z,100149.13
2022-11-09T06:49:43.099Z,100155.34
2022-11-09T06:54:45.105Z,100155.03
2022-11-09T06:59:47.127Z,100156.19
2022-11-09T07:04:52.472Z,100159.69
2022-11-09T07:09:54.736Z,100167.75
2022-11-09T07:14:56.926Z,100166.41
2022-11-09T07:19:59.095Z,100169.38
2022-11-09T07:25:01.249Z,100168.25
2022-11-09T07:30:04.623Z,100180.59
2022-11-09T07:35:07.982Z,100184.94
2022-11-09T07:40:10.488Z,100197.22
2022-11-09T07:45:12.584Z,100201.88
2022-11-09T07:50:14.745Z,100197.00
2022-11-09T07:55:17.937Z,100202.97
2022-11-09T08:00:23.633Z,100208.03
2022-11-09T08:05:26.222Z,100213.06
2022-11-09T08:10:29.489Z,100216.09
2022-11-09T08:15:32.383Z,100223.13
2022-11-09T08:20:35.024Z,100226.06
2022-11-09T08:25:38.845Z,100231.78
2022-11-09T08:30:41.195Z,100232.06
2022-11-09T08:35:43.313Z,100247.72
2022-11-09T08:40:45.433Z,100234.94
2022-11-09T08:45:48.445Z,100227.97
2022-11-09T08:50:55.366Z,100224.38
2022-11-09T08:55:57.716Z,100236.53
2022-11-09T09:00:59.695Z,100229.38
2022-11-09T09:06:06.181Z,100235.56
2022-11-09T09:11:08.167Z,100247.81
2022-11-09T09:16:11.968Z,100260.50
2022-11-09T09:21:14.197Z,100260.50
2022-11-09T09:26:16.937Z,100256.16
2022-11-09T09:31:19.269Z,100254.53
2022-11-09T09:36:23.354Z,100261.66
2022-11-09T09:41:37.583Z,100266.44
2022-11-09T09:46:46.561Z,100274.97
2022-11-09T09:51:57.737Z,100277.22
2022-11-09T09:57:01.779Z,100283.31
2022-11-09T10:02:03.974Z,100285.97
2022-11-09T10:07:12.518Z,100292.25
2022-11-09T10:12:17.471Z,100297.22
2022-11-09T10:17:45.257Z,100306.38
2022-11-09T10:23:03.722Z,100299.88
2022-11-09T10:28:13.394Z,100305.91
2022-11-09T10:33:21.694Z,100311.72
2022-11-09T10:38:28.507Z,100310.94
2022-11-09T10:43:30.544Z,100320.44
2022-11-09T10:48:36.039Z,100328.72
2022-11-09T10:53:38.176Z,100325.00
2022-11-09T10:58:54.254Z,100341.03
2022-11-09T11:03:57.639Z,100331.72
2022-11-09T11:09:16.688Z,100322.63
2022-11-09T11:14:34.069Z,100336.41
2022-11-09T11:19:45.129Z,100337.53
2022-11-09T11:25:18.103Z,100342.56
2022-11-09T11:30:28.508Z,100338.03
2022-11-09T11:36:08.044Z,100348.50
2022-11-09T11:41:28.310Z,100355.28
2022-11-09T11:46:54.001Z,100360.41
2022-11-09T11:52:27.960Z,100361.53
2022-11-09T11:57:29.981Z,100355.50
2022-11-09T12:02:51.273Z,100367.63
2022-11-09T12:08:05.272Z,100354.84
2022-11-09T12:13:30.600Z,100362.41
2022-11-09T12:18:54.277Z,100348.09
2022-11-09T12:24:21.334Z,100353.47
2022-11-09T12:29:30.206Z,100359.72
2022-11-09T12:34:58.246Z,100361.94
2022-11-09T12:40:13.899Z,100370.47
2022-11-09T12:45:15.898Z,100359.22
2022-11-09T12:50:20.566Z,100361.94
2022-11-09T12:55:38.541Z,100356.63
2022-11-09T13:00:45.126Z,100352.00
2022-11-09T13:05:48.980Z,100356.69
2022-11-09T13:11:30.417Z,100361.25
2022-11-09T13:16:35.665Z,100370.63
2022-11-09T13:21:39.215Z,100379.63
2022-11-09T13:26:55.951Z,100391.31
2022-11-09T13:32:24.106Z,100394.06
2022-11-09T13:37:41.291Z,100398.88
2022-11-09T13:42:43.732Z,100394.97
2022-11-09T13:47:52.583Z,100400.22
2022-11-09T13:52:59.730Z,100387.97
2022-11-09T13:58:10.845Z,100413.50
2022-11-09T14:03:24.692Z,100406.03
2022-11-09T14:08:30.539Z,100422.00
2022-11-09T14:14:11.499Z,100426.81
2022-11-09T14:19:27.972Z,100425.53
2022-11-09T14:24:33.852Z,100430.25
2022-11-09T14:29:55.178Z,100440.09
2022-11-09T14:35:23.948Z,100443.53
2022-11-09T14:40:27.861Z,100441.56
2022-11-09T14:45:30.164Z,100439.34
2022-11-09T14:50:35.948Z,100453.91
2022-11-09T14:55:43.025Z,100460.53
2022-11-09T15:00:46.266Z,100479.56
2022-11-09T15:05:48.667Z,100479.72
2022-11-09T15:10:53.837Z,100492.00
2022-11-09T15:15:56.109Z,100483.41
2022-11-09T15:21:14.139Z,100488.16
2022-11-09T15:26:35.960Z,100495.25
2022-11-09T15:31:38.225Z,100511.19
2022-11-09T15:36:45.043Z,100506.09
2022-11-09T15:41:48.329Z,100518.25
2022-11-09T15:46:52.622Z,100524.50
2022-11-09T15:51:55.693Z,100528.97
2022-11-09T15:56:57.968Z,100538.00
2022-11-09T16:01:59.966Z,100552.56
2022-11-09T16:07:02.088Z,100564.81
2022-11-09T16:12:04.177Z,100584.78
2022-11-09T16:17:06.207Z,100612.09
2022-11-09T16:22:08.969Z,100608.66
2022-11-09T16:27:22.279Z,100613.19
2022-11-09T16:32:33.229Z,100608.56
2022-11-09T16:37:39.047Z,100622.03
2022-11-09T16:42:41.376Z,100628.28
2022-11-09T16:47:47.947Z,100628.38
2022-11-09T16:52:50.041Z,100631.16
2022-11-09T16:57:51.924Z,100637.19
2022-11-09T17:02:54.126Z,100646.91
2022-11-09T17:07:56.026Z,100652.75
2022-11-09T17:12:57.930Z,100670.28
2022-11-09T17:18:00.331Z,100674.28
2022-11-09T17:23:02.577Z,100683.97
2022-11-09T17:28:05.752Z,100688.75
2022-11-09T17:33:08.416Z,100695.16
2022-11-09T17:38:10.896Z,100704.69
2022-11-09T17:43:13.349Z,100712.69
2022-11-09T17:48:15.249Z,100720.59
2022-11-09T17:53:17.466Z,100713.22
2022-11-09T17:58:20.030Z,100726.81
2022-11-09T18:03:23.456Z,100736.44
2022-11-09T18:08:26.011Z,100752.06
2022-11-09T18:13:28.235Z,100762.66
2022-11-09T18:18:30.329Z,100767.72
2022-11-09T18:23:33.443Z,100777.44
2022-11-09T18:28:36.453Z,100782.09
2022-11-09T18:33:40.380Z,100795.41
2022-11-09T18:38:44.189Z,100796.19
2022-11-09T18:43:47.125Z,100799.09
2022-11-09T18:48:53.578Z,100807.00
2022-11-09T18:53:55.748Z,100796.34
2022-11-09T18:58:58.183Z,100812.44
2022-11-09T19:04:03.064Z,100824.97
2022-11-09T19:09:23.767Z,100826.09
2022-11-09T19:14:26.425Z,100823.44
2022-11-09T19:19:28.335Z,100834.69
2022-11-09T19:24:31.307Z,100835.38
2022-11-09T19:29:33.081Z,100841.69
2022-11-09T19:34:34.856Z,100839.44
2022-11-09T19:39:41.794Z,100842.19
2022-11-09T19:44:45.008Z,100854.41
2022-11-09T19:49:47.080Z,100858.69
2022-11-09T19:54:48.960Z,100872.06
2022-11-09T19:59:51.095Z,100873.16
2022-11-09T20:04:54.070Z,100893.66
2022-11-09T20:09:56.006Z,100896.50
2022-11-09T20:14:57.935Z,100917.19
2022-11-09T20:20:00.108Z,100919.00
2022-11-09T20:25:02.207Z,100937.50
2022-11-09T20:30:04.776Z,100943.19
2022-11-09T20:35:07.072Z,100936.22
2022-11-09T20:40:09.468Z,100946.16
2022-11-09T20:45:11.553Z,100955.94
2022-11-09T20:50:14.527Z,100969.47
2022-11-09T20:55:16.508Z,100976.66
2022-11-09T21:00:24.088Z,100988.66
2022-11-09T21:05:26.240Z,100996.69
2022-11-09T21:10:28.173Z,100992.03
2022-11-09T21:15:30.357Z,100995.84
2022-11-09T21:20:31.990Z,101002.31
2022-11-09T21:25:54.935Z,101002.78
2022-11-09T21:31:00.704Z,101009.91
2022-11-09T21:36:10.191Z,101020.06
2022-11-09T21:41:34.062Z,101033.16
2022-11-09T21:46:37.407Z,101027.06
2022-11-09T21:51:41.423Z,101033.91
2022-11-09T21:56:43.162Z,101038.72
2022-11-09T22:01:45.643Z,101031.75
2022-11-09T22:06:47.669Z,101037.28
2022-11-09T22:12:08.125Z,101052.28
2022-11-09T22:17:10.215Z,101052.88
2022-11-09T22:22:13.158Z,101052.16
2022-11-09T22:27:17.548Z,101036.72
2022-11-09T22:32:19.745Z,101040.94
2022-11-09T22:37:21.998Z,101055.84
2022-11-09T22:42:24.351Z,101060.72
2022-11-09T22:47:26.773Z,101059.75
2022-11-09T22:52:29.136Z,101074.13
2022-11-09T22:57:33.358Z,101088.94
2022-11-09T23:02:35.696Z,101106.84
2022-11-09T23:07:37.598Z,101110.44
2022-11-09T23:12:39.571Z,101112.09
2022-11-09T23:18:00.562Z,101125.66
2022-11-09T23:23:02.857Z,101122.50
2022-11-09T23:28:05.382Z,101128.34
2022-11-09T23:33:07.834Z,101138.34
2022-11-09T23:38:09.973Z,101144.16
2022-11-09T23:43:12.764Z,101146.81
2022-11-09T23:48:17.214Z,101152.00
2022-11-09T23:53:19.748Z,101158.16
2022-11-09T23:58:22.117Z,101168.88
